sensor_id;sensor_type;location;lat;lon;timestamp;P1;durP1;ratioP1;P2;durP2;ratioP2
57087;SDS011;42965;52.846;6.614;2023-03-14T00:01:07;24.13;;;5.32;;
57087;SDS011;42965;52.846;6.614;2023-03-14T00:03:34;22.40;;;4.88;;
57087;SDS011;42965;52.846;6.614;2023-03-14T00:06:02;27.02;;;6.78;;
57087;SDS011;42965;52.846;6.614;2023-03-14T00:08:29;23.30;;;5.47;;
57087;SDS011;42965;52.846;6.614;2023-03-14T00:10:55;23.42;;;6.18;;
57087;SDS011;42965;52.846;6.614;2023-03-14T00:13:24;21.10;;;5.10;;
57087;SDS011;42965;52.846;6.614;2023-03-14T00:15:50;19.45;;;5.20;;
57087;SDS011;42965;52.846;6.614;2023-03-14T00:18:17;24.45;;;5.65;;
57087;SDS011;42965;52.846;6.614;2023-03-14T00:20:45;26.02;;;6.38;;
57087;SDS011;42965;52.846;6.614;2023-03-14T00:23:12;21.27;;;4.90;;
57087;SDS011;42965;52.846;6.614;2023-03-14T00:25:38;20.88;;;5.50;;
57087;SDS011;42965;52.846;6.614;2023-03-14T00:28:05;24.25;;;5.80;;
57087;SDS011;42965;52.846;6.614;2023-03-14T00:30:31;18.40;;;4.40;;
57087;SDS011;42965;52.846;6.614;2023-03-14T00:32:58;26.38;;;5.68;;
57087;SDS011;42965;52.846;6.614;2023-03-14T00:35:24;23.23;;;5.68;;
57087;SDS011;42965;52.846;6.614;2023-03-14T00:37:52;22.10;;;5.22;;
57087;SDS011;42965;52.846;6.614;2023-03-14T00:40:19;23.08;;;5.30;;
57087;SDS011;42965;52.846;6.614;2023-03-14T00:42:52;24.58;;;5.45;;
57087;SDS011;42965;52.846;6.614;2023-03-14T00:45:18;21.17;;;5.43;;
57087;SDS011;42965;52.846;6.614;2023-03-14T00:47:45;19.27;;;4.88;;
57087;SDS011;42965;52.846;6.614;2023-03-14T00:50:12;22.45;;;5.18;;
57087;SDS011;42965;52.846;6.614;2023-03-14T00:52:41;18.67;;;5.18;;
57087;SDS011;42965;52.846;6.614;2023-03-14T00:55:08;24.27;;;5.60;;
57087;SDS011;42965;52.846;6.614;2023-03-14T00:57:35;19.35;;;4.82;;
57087;SDS011;42965;52.846;6.614;2023-03-14T01:00:01;23.83;;;5.80;;
57087;SDS011;42965;52.846;6.614;2023-03-14T01:02:31;21.60;;;6.00;;
57087;SDS011;42965;52.846;6.614;2023-03-14T01:04:59;21.83;;;7.15;;
57087;SDS011;42965;52.846;6.614;2023-03-14T01:07:36;20.30;;;6.22;;
57087;SDS011;42965;52.846;6.614;2023-03-14T01:10:05;21.20;;;6.63;;
57087;SDS011;42965;52.846;6.614;2023-03-14T01:12:38;19.73;;;6.88;;
57087;SDS011;42965;52.846;6.614;2023-03-14T01:15:04;18.67;;;6.53;;
57087;SDS011;42965;52.846;6.614;2023-03-14T01:17:34;16.98;;;5.72;;
57087;SDS011;42965;52.846;6.614;2023-03-14T01:20:03;17.05;;;5.97;;
57087;SDS011;42965;52.846;6.614;2023-03-14T01:22:31;21.55;;;5.70;;
57087;SDS011;42965;52.846;6.614;2023-03-14T01:24:57;17.52;;;6.88;;
57087;SDS011;42965;52.846;6.614;2023-03-14T01:27:24;15.10;;;5.72;;
57087;SDS011;42965;52.846;6.614;2023-03-14T01:29:53;16.50;;;5.28;;
57087;SDS011;42965;52.846;6.614;2023-03-14T01:32:23;19.08;;;5.93;;
57087;SDS011;42965;52.846;6.614;2023-03-14T01:34:52;16.25;;;6.13;;
57087;SDS011;42965;52.846;6.614;2023-03-14T01:37:19;15.90;;;5.03;;
57087;SDS011;42965;52.846;6.614;2023-03-14T01:39:46;19.48;;;5.57;;
57087;SDS011;42965;52.846;6.614;2023-03-14T01:42:16;14.93;;;4.72;;
57087;SDS011;42965;52.846;6.614;2023-03-14T01:44:54;14.70;;;4.03;;
57087;SDS011;42965;52.846;6.614;2023-03-14T01:47:28;19.80;;;4.80;;
57087;SDS011;42965;52.846;6.614;2023-03-14T01:52:27;18.95;;;4.90;;
57087;SDS011;42965;52.846;6.614;2023-03-14T01:55:01;21.25;;;6.03;;
57087;SDS011;42965;52.846;6.614;2023-03-14T01:57:35;15.13;;;4.65;;
57087;SDS011;42965;52.846;6.614;2023-03-14T02:00:12;16.95;;;4.93;;
57087;SDS011;42965;52.846;6.614;2023-03-14T02:05:35;17.08;;;4.03;;
57087;SDS011;42965;52.846;6.614;2023-03-14T02:08:10;19.80;;;5.03;;
57087;SDS011;42965;52.846;6.614;2023-03-14T02:10:51;17.60;;;5.13;;
57087;SDS011;42965;52.846;6.614;2023-03-14T02:13:36;22.80;;;4.72;;
57087;SDS011;42965;52.846;6.614;2023-03-14T02:16:21;16.73;;;5.32;;
57087;SDS011;42965;52.846;6.614;2023-03-14T02:22:35;19.37;;;5.60;;
57087;SDS011;42965;52.846;6.614;2023-03-14T02:28:00;20.92;;;5.90;;
57087;SDS011;42965;52.846;6.614;2023-03-14T02:30:28;17.65;;;5.38;;
57087;SDS011;42965;52.846;6.614;2023-03-14T02:32:59;15.88;;;5.30;;
57087;SDS011;42965;52.846;6.614;2023-03-14T02:35:36;19.83;;;6.00;;
57087;SDS011;42965;52.846;6.614;2023-03-14T02:40:43;18.63;;;5.72;;
57087;SDS011;42965;52.846;6.614;2023-03-14T02:43:11;20.25;;;5.85;;
57087;SDS011;42965;52.846;6.614;2023-03-14T02:45:48;19.13;;;5.90;;
57087;SDS011;42965;52.846;6.614;2023-03-14T02:51:01;13.75;;;5.28;;
57087;SDS011;42965;52.846;6.614;2023-03-14T02:53:36;22.95;;;5.82;;
57087;SDS011;42965;52.846;6.614;2023-03-14T02:56:08;20.92;;;5.95;;
57087;SDS011;42965;52.846;6.614;2023-03-14T02:58:36;15.95;;;5.15;;
57087;SDS011;42965;52.846;6.614;2023-03-14T03:01:18;16.75;;;4.85;;
57087;SDS011;42965;52.846;6.614;2023-03-14T03:03:44;15.18;;;4.63;;
57087;SDS011;42965;52.846;6.614;2023-03-14T03:06:11;13.15;;;4.40;;
57087;SDS011;42965;52.846;6.614;2023-03-14T03:08:45;7.85;;;4.15;;
57087;SDS011;42965;52.846;6.614;2023-03-14T03:11:11;13.32;;;4.03;;
57087;SDS011;42965;52.846;6.614;2023-03-14T03:13:38;12.27;;;4.28;;
57087;SDS011;42965;52.846;6.614;2023-03-14T03:16:05;8.35;;;4.30;;
57087;SDS011;42965;52.846;6.614;2023-03-14T03:18:33;15.93;;;4.78;;
57087;SDS011;42965;52.846;6.614;2023-03-14T03:21:00;12.82;;;4.20;;
57087;SDS011;42965;52.846;6.614;2023-03-14T03:23:27;9.93;;;4.45;;
57087;SDS011;42965;52.846;6.614;2023-03-14T03:25:54;13.07;;;4.55;;
57087;SDS011;42965;52.846;6.614;2023-03-14T03:28:21;16.05;;;4.28;;
57087;SDS011;42965;52.846;6.614;2023-03-14T03:30:48;13.90;;;5.10;;
57087;SDS011;42965;52.846;6.614;2023-03-14T03:33:14;12.15;;;4.82;;
57087;SDS011;42965;52.846;6.614;2023-03-14T03:35:44;11.68;;;5.32;;
57087;SDS011;42965;52.846;6.614;2023-03-14T03:38:14;15.75;;;5.70;;
57087;SDS011;42965;52.846;6.614;2023-03-14T03:40:42;18.33;;;6.20;;
57087;SDS011;42965;52.846;6.614;2023-03-14T03:43:09;14.13;;;5.53;;
57087;SDS011;42965;52.846;6.614;2023-03-14T03:45:39;16.63;;;5.97;;
57087;SDS011;42965;52.846;6.614;2023-03-14T03:48:06;18.02;;;6.05;;
57087;SDS011;42965;52.846;6.614;2023-03-14T03:50:32;16.40;;;6.07;;
57087;SDS011;42965;52.846;6.614;2023-03-14T03:52:59;17.13;;;5.97;;
57087;SDS011;42965;52.846;6.614;2023-03-14T03:55:25;13.20;;;6.20;;
57087;SDS011;42965;52.846;6.614;2023-03-14T03:57:53;17.00;;;7.07;;
57087;SDS011;42965;52.846;6.614;2023-03-14T04:00:20;18.42;;;5.65;;
57087;SDS011;42965;52.846;6.614;2023-03-14T04:02:47;16.55;;;5.55;;
57087;SDS011;42965;52.846;6.614;2023-03-14T04:05:16;12.40;;;5.38;;
57087;SDS011;42965;52.846;6.614;2023-03-14T04:07:53;14.55;;;5.40;;
57087;SDS011;42965;52.846;6.614;2023-03-14T04:10:23;14.52;;;5.40;;
57087;SDS011;42965;52.846;6.614;2023-03-14T04:13:09;14.77;;;4.80;;
57087;SDS011;42965;52.846;6.614;2023-03-14T04:15:37;16.05;;;5.72;;
57087;SDS011;42965;52.846;6.614;2023-03-14T04:18:11;15.63;;;4.13;;
57087;SDS011;42965;52.846;6.614;2023-03-14T04:20:37;14.80;;;5.65;;
57087;SDS011;42965;52.846;6.614;2023-03-14T04:23:04;16.10;;;4.82;;
57087;SDS011;42965;52.846;6.614;2023-03-14T04:25:34;22.20;;;5.80;;
57087;SDS011;42965;52.846;6.614;2023-03-14T04:28:04;14.43;;;5.47;;
57087;SDS011;42965;52.846;6.614;2023-03-14T04:30:31;19.92;;;5.22;;
57087;SDS011;42965;52.846;6.614;2023-03-14T04:33:17;18.35;;;5.32;;
57087;SDS011;42965;52.846;6.614;2023-03-14T04:35:53;14.38;;;5.47;;
57087;SDS011;42965;52.846;6.614;2023-03-14T04:38:20;16.73;;;5.72;;
57087;SDS011;42965;52.846;6.614;2023-03-14T04:40:48;17.35;;;6.00;;
57087;SDS011;42965;52.846;6.614;2023-03-14T04:43:15;14.55;;;6.45;;
57087;SDS011;42965;52.846;6.614;2023-03-14T04:45:48;14.57;;;7.60;;
57087;SDS011;42965;52.846;6.614;2023-03-14T04:48:14;17.08;;;7.35;;
57087;SDS011;42965;52.846;6.614;2023-03-14T04:50:42;12.18;;;7.07;;
57087;SDS011;42965;52.846;6.614;2023-03-14T04:53:09;18.25;;;8.13;;
57087;SDS011;42965;52.846;6.614;2023-03-14T04:55:37;16.90;;;7.68;;
57087;SDS011;42965;52.846;6.614;2023-03-14T04:58:04;17.52;;;7.43;;
57087;SDS011;42965;52.846;6.614;2023-03-14T05:00:31;16.02;;;6.97;;
57087;SDS011;42965;52.846;6.614;2023-03-14T05:02:57;12.77;;;6.65;;
57087;SDS011;42965;52.846;6.614;2023-03-14T05:05:32;12.68;;;7.15;;
57087;SDS011;42965;52.846;6.614;2023-03-14T05:08:01;14.57;;;6.90;;
57087;SDS011;42965;52.846;6.614;2023-03-14T05:10:54;10.38;;;6.55;;
57087;SDS011;42965;52.846;6.614;2023-03-14T05:13:54;13.20;;;6.63;;
57087;SDS011;42965;52.846;6.614;2023-03-14T05:19:10;14.23;;;6.95;;
57087;SDS011;42965;52.846;6.614;2023-03-14T05:21:57;13.20;;;6.60;;
57087;SDS011;42965;52.846;6.614;2023-03-14T05:24:37;14.88;;;6.93;;
57087;SDS011;42965;52.846;6.614;2023-03-14T05:27:11;12.02;;;6.25;;
57087;SDS011;42965;52.846;6.614;2023-03-14T05:29:59;17.20;;;6.40;;
57087;SDS011;42965;52.846;6.614;2023-03-14T05:32:45;19.05;;;7.22;;
57087;SDS011;42965;52.846;6.614;2023-03-14T05:35:18;11.43;;;6.35;;
57087;SDS011;42965;52.846;6.614;2023-03-14T05:38:12;17.13;;;7.30;;
57087;SDS011;42965;52.846;6.614;2023-03-14T05:41:04;16.17;;;6.63;;
57087;SDS011;42965;52.846;6.614;2023-03-14T05:43:51;17.00;;;7.43;;
57087;SDS011;42965;52.846;6.614;2023-03-14T05:46:31;17.08;;;7.18;;
57087;SDS011;42965;52.846;6.614;2023-03-14T05:49:17;16.00;;;6.75;;
57087;SDS011;42965;52.846;6.614;2023-03-14T05:52:24;16.48;;;6.93;;
57087;SDS011;42965;52.846;6.614;2023-03-14T05:55:22;14.30;;;7.35;;
57087;SDS011;42965;52.846;6.614;2023-03-14T05:58:22;18.13;;;7.45;;
57087;SDS011;42965;52.846;6.614;2023-03-14T06:01:26;21.83;;;7.53;;
57087;SDS011;42965;52.846;6.614;2023-03-14T06:04:34;20.02;;;7.85;;
57087;SDS011;42965;52.846;6.614;2023-03-14T06:07:01;21.10;;;8.02;;
57087;SDS011;42965;52.846;6.614;2023-03-14T06:09:27;22.63;;;8.15;;
57087;SDS011;42965;52.846;6.614;2023-03-14T06:11:56;17.83;;;7.63;;
57087;SDS011;42965;52.846;6.614;2023-03-14T06:14:23;21.25;;;8.18;;
57087;SDS011;42965;52.846;6.614;2023-03-14T06:16:51;23.80;;;8.20;;
57087;SDS011;42965;52.846;6.614;2023-03-14T06:19:22;14.82;;;8.90;;
57087;SDS011;42965;52.846;6.614;2023-03-14T06:21:49;18.92;;;8.07;;
57087;SDS011;42965;52.846;6.614;2023-03-14T06:24:15;23.33;;;8.52;;
57087;SDS011;42965;52.846;6.614;2023-03-14T06:26:54;17.85;;;7.93;;
57087;SDS011;42965;52.846;6.614;2023-03-14T06:29:21;21.23;;;7.95;;
57087;SDS011;42965;52.846;6.614;2023-03-14T06:31:48;16.73;;;7.03;;
57087;SDS011;42965;52.846;6.614;2023-03-14T06:34:17;10.52;;;6.15;;
57087;SDS011;42965;52.846;6.614;2023-03-14T06:36:47;12.40;;;6.32;;
57087;SDS011;42965;52.846;6.614;2023-03-14T06:39:20;15.27;;;5.00;;
57087;SDS011;42965;52.846;6.614;2023-03-14T06:41:51;13.93;;;5.30;;
57087;SDS011;42965;52.846;6.614;2023-03-14T06:44:19;15.13;;;5.60;;
57087;SDS011;42965;52.846;6.614;2023-03-14T06:46:46;14.32;;;5.70;;
57087;SDS011;42965;52.846;6.614;2023-03-14T06:49:12;12.50;;;5.82;;
57087;SDS011;42965;52.846;6.614;2023-03-14T06:51:39;9.95;;;6.10;;
57087;SDS011;42965;52.846;6.614;2023-03-14T06:54:08;13.05;;;5.75;;
57087;SDS011;42965;52.846;6.614;2023-03-14T06:56:35;13.18;;;5.78;;
57087;SDS011;42965;52.846;6.614;2023-03-14T06:59:08;10.95;;;5.70;;
57087;SDS011;42965;52.846;6.614;2023-03-14T07:01:36;12.10;;;5.82;;
57087;SDS011;42965;52.846;6.614;2023-03-14T07:04:08;8.98;;;4.97;;
57087;SDS011;42965;52.846;6.614;2023-03-14T07:06:37;13.98;;;5.68;;
57087;SDS011;42965;52.846;6.614;2023-03-14T07:09:05;10.23;;;5.80;;
57087;SDS011;42965;52.846;6.614;2023-03-14T07:11:34;15.00;;;6.43;;
57087;SDS011;42965;52.846;6.614;2023-03-14T07:14:01;15.68;;;6.55;;
57087;SDS011;42965;52.846;6.614;2023-03-14T07:16:27;12.25;;;5.47;;
57087;SDS011;42965;52.846;6.614;2023-03-14T07:18:57;8.48;;;4.53;;
57087;SDS011;42965;52.846;6.614;2023-03-14T07:21:26;13.00;;;3.63;;
57087;SDS011;42965;52.846;6.614;2023-03-14T07:23:53;6.55;;;2.40;;
57087;SDS011;42965;52.846;6.614;2023-03-14T07:26:21;5.20;;;1.85;;
57087;SDS011;42965;52.846;6.614;2023-03-14T07:28:52;4.13;;;2.22;;
57087;SDS011;42965;52.846;6.614;2023-03-14T07:31:19;6.55;;;2.70;;
57087;SDS011;42965;52.846;6.614;2023-03-14T07:33:46;5.72;;;1.70;;
57087;SDS011;42965;52.846;6.614;2023-03-14T07:36:13;10.65;;;6.32;;
57087;SDS011;42965;52.846;6.614;2023-03-14T07:38:42;6.70;;;1.77;;
57087;SDS011;42965;52.846;6.614;2023-03-14T07:41:18;7.18;;;1.35;;
57087;SDS011;42965;52.846;6.614;2023-03-14T07:44:06;6.25;;;2.50;;
57087;SDS011;42965;52.846;6.614;2023-03-14T07:46:33;8.10;;;1.50;;
57087;SDS011;42965;52.846;6.614;2023-03-14T07:49:00;4.50;;;1.15;;
57087;SDS011;42965;52.846;6.614;2023-03-14T07:51:26;9.68;;;2.95;;
57087;SDS011;42965;52.846;6.614;2023-03-14T07:53:52;9.00;;;3.40;;
57087;SDS011;42965;52.846;6.614;2023-03-14T07:56:19;10.10;;;3.75;;
57087;SDS011;42965;52.846;6.614;2023-03-14T07:58:45;7.00;;;2.03;;
57087;SDS011;42965;52.846;6.614;2023-03-14T08:01:12;10.90;;;1.98;;
57087;SDS011;42965;52.846;6.614;2023-03-14T08:03:39;7.53;;;1.90;;
57087;SDS011;42965;52.846;6.614;2023-03-14T08:06:05;8.20;;;1.40;;
57087;SDS011;42965;52.846;6.614;2023-03-14T08:08:32;5.55;;;2.08;;
57087;SDS011;42965;52.846;6.614;2023-03-14T08:11:03;4.45;;;2.33;;
57087;SDS011;42965;52.846;6.614;2023-03-14T08:13:31;8.93;;;4.32;;
57087;SDS011;42965;52.846;6.614;2023-03-14T08:15:58;6.75;;;1.70;;
57087;SDS011;42965;52.846;6.614;2023-03-14T08:18:24;2.58;;;0.98;;
57087;SDS011;42965;52.846;6.614;2023-03-14T08:20:51;11.98;;;5.35;;
57087;SDS011;42965;52.846;6.614;2023-03-14T08:23:17;8.95;;;2.60;;
57087;SDS011;42965;52.846;6.614;2023-03-14T08:25:44;10.35;;;5.50;;
57087;SDS011;42965;52.846;6.614;2023-03-14T08:28:12;7.25;;;2.90;;
57087;SDS011;42965;52.846;6.614;2023-03-14T08:30:39;6.15;;;1.65;;
57087;SDS011;42965;52.846;6.614;2023-03-14T08:33:11;5.70;;;2.45;;
57087;SDS011;42965;52.846;6.614;2023-03-14T08:35:37;10.90;;;4.03;;
57087;SDS011;42965;52.846;6.614;2023-03-14T08:38:04;8.98;;;4.53;;
57087;SDS011;42965;52.846;6.614;2023-03-14T08:40:30;9.80;;;3.92;;
57087;SDS011;42965;52.846;6.614;2023-03-14T08:42:57;14.68;;;4.90;;
57087;SDS011;42965;52.846;6.614;2023-03-14T08:45:23;2.47;;;0.80;;
57087;SDS011;42965;52.846;6.614;2023-03-14T08:47:51;5.63;;;2.83;;
57087;SDS011;42965;52.846;6.614;2023-03-14T08:50:18;2.92;;;1.40;;
57087;SDS011;42965;52.846;6.614;2023-03-14T08:52:44;6.68;;;1.17;;
57087;SDS011;42965;52.846;6.614;2023-03-14T08:55:11;11.27;;;6.72;;
57087;SDS011;42965;52.846;6.614;2023-03-14T08:57:41;6.47;;;2.55;;
57087;SDS011;42965;52.846;6.614;2023-03-14T09:00:09;9.52;;;3.55;;
57087;SDS011;42965;52.846;6.614;2023-03-14T09:02:38;6.00;;;1.45;;
57087;SDS011;42965;52.846;6.614;2023-03-14T09:05:05;8.65;;;3.45;;
57087;SDS011;42965;52.846;6.614;2023-03-14T09:07:32;5.40;;;1.92;;
57087;SDS011;42965;52.846;6.614;2023-03-14T09:09:58;10.10;;;2.60;;
57087;SDS011;42965;52.846;6.614;2023-03-14T09:12:24;10.20;;;3.28;;
57087;SDS011;42965;52.846;6.614;2023-03-14T09:14:51;5.70;;;1.05;;
57087;SDS011;42965;52.846;6.614;2023-03-14T09:17:17;10.25;;;3.72;;
57087;SDS011;42965;52.846;6.614;2023-03-14T09:19:44;11.40;;;3.00;;
57087;SDS011;42965;52.846;6.614;2023-03-14T09:22:10;13.98;;;6.07;;
57087;SDS011;42965;52.846;6.614;2023-03-14T09:24:36;13.25;;;4.93;;
57087;SDS011;42965;52.846;6.614;2023-03-14T09:27:03;7.50;;;2.13;;
57087;SDS011;42965;52.846;6.614;2023-03-14T09:29:31;10.52;;;2.60;;
57087;SDS011;42965;52.846;6.614;2023-03-14T09:31:58;17.45;;;6.78;;
57087;SDS011;42965;52.846;6.614;2023-03-14T09:34:25;6.97;;;2.40;;
57087;SDS011;42965;52.846;6.614;2023-03-14T09:36:52;11.38;;;3.03;;
57087;SDS011;42965;52.846;6.614;2023-03-14T09:39:19;10.45;;;1.92;;
57087;SDS011;42965;52.846;6.614;2023-03-14T09:41:51;11.02;;;4.15;;
57087;SDS011;42965;52.846;6.614;2023-03-14T09:44:24;17.67;;;3.50;;
57087;SDS011;42965;52.846;6.614;2023-03-14T09:46:54;12.95;;;3.63;;
57087;SDS011;42965;52.846;6.614;2023-03-14T09:52:06;19.95;;;7.03;;
57087;SDS011;42965;52.846;6.614;2023-03-14T09:55:01;13.23;;;3.10;;
57087;SDS011;42965;52.846;6.614;2023-03-14T09:57:35;18.10;;;3.28;;
57087;SDS011;42965;52.846;6.614;2023-03-14T10:00:06;20.92;;;4.97;;
57087;SDS011;42965;52.846;6.614;2023-03-14T10:02:43;14.52;;;5.25;;
57087;SDS011;42965;52.846;6.614;2023-03-14T10:05:19;19.10;;;4.60;;
57087;SDS011;42965;52.846;6.614;2023-03-14T10:07:47;23.63;;;7.40;;
57087;SDS011;42965;52.846;6.614;2023-03-14T10:10:15;20.30;;;6.55;;
57087;SDS011;42965;52.846;6.614;2023-03-14T10:12:54;25.80;;;9.43;;
57087;SDS011;42965;52.846;6.614;2023-03-14T10:15:39;16.65;;;3.85;;
57087;SDS011;42965;52.846;6.614;2023-03-14T10:18:10;22.63;;;4.80;;
57087;SDS011;42965;52.846;6.614;2023-03-14T10:20:42;24.80;;;6.03;;
57087;SDS011;42965;52.846;6.614;2023-03-14T10:25:43;19.38;;;3.33;;
57087;SDS011;42965;52.846;6.614;2023-03-14T10:28:27;24.30;;;4.93;;
57087;SDS011;42965;52.846;6.614;2023-03-14T10:30:57;17.15;;;3.80;;
57087;SDS011;42965;52.846;6.614;2023-03-14T10:33:28;17.20;;;4.43;;
57087;SDS011;42965;52.846;6.614;2023-03-14T10:36:00;14.02;;;3.47;;
57087;SDS011;42965;52.846;6.614;2023-03-14T10:38:35;17.27;;;4.72;;
57087;SDS011;42965;52.846;6.614;2023-03-14T10:41:03;21.73;;;4.85;;
57087;SDS011;42965;52.846;6.614;2023-03-14T10:43:54;23.13;;;8.23;;
57087;SDS011;42965;52.846;6.614;2023-03-14T10:46:23;15.02;;;3.33;;
57087;SDS011;42965;52.846;6.614;2023-03-14T10:49:31;24.38;;;4.65;;
57087;SDS011;42965;52.846;6.614;2023-03-14T10:54:38;22.88;;;3.75;;
57087;SDS011;42965;52.846;6.614;2023-03-14T10:57:04;21.25;;;4.50;;
57087;SDS011;42965;52.846;6.614;2023-03-14T10:59:35;19.65;;;5.55;;
57087;SDS011;42965;52.846;6.614;2023-03-14T11:02:07;18.88;;;4.20;;
57087;SDS011;42965;52.846;6.614;2023-03-14T11:07:41;15.57;;;2.90;;
57087;SDS011;42965;52.846;6.614;2023-03-14T11:12:55;17.85;;;5.32;;
57087;SDS011;42965;52.846;6.614;2023-03-14T11:15:41;15.90;;;3.20;;
57087;SDS011;42965;52.846;6.614;2023-03-14T11:21:02;14.45;;;2.92;;
57087;SDS011;42965;52.846;6.614;2023-03-14T11:32:19;19.60;;;4.57;;
57087;SDS011;42965;52.846;6.614;2023-03-14T11:34:53;8.45;;;2.67;;
57087;SDS011;42965;52.846;6.614;2023-03-14T11:37:33;11.50;;;2.45;;
57087;SDS011;42965;52.846;6.614;2023-03-14T11:42:30;12.73;;;3.03;;
57087;SDS011;42965;52.846;6.614;2023-03-14T11:45:01;15.57;;;5.40;;
57087;SDS011;42965;52.846;6.614;2023-03-14T11:47:37;10.63;;;2.20;;
57087;SDS011;42965;52.846;6.614;2023-03-14T11:52:50;11.90;;;2.67;;
57087;SDS011;42965;52.846;6.614;2023-03-14T11:55:53;11.30;;;2.75;;
57087;SDS011;42965;52.846;6.614;2023-03-14T11:58:31;10.73;;;2.22;;
57087;SDS011;42965;52.846;6.614;2023-03-14T12:01:05;14.73;;;4.50;;
57087;SDS011;42965;52.846;6.614;2023-03-14T12:03:45;10.63;;;2.30;;
57087;SDS011;42965;52.846;6.614;2023-03-14T12:06:23;11.98;;;2.10;;
57087;SDS011;42965;52.846;6.614;2023-03-14T12:09:06;9.05;;;2.70;;
57087;SDS011;42965;52.846;6.614;2023-03-14T12:14:17;9.60;;;2.13;;
57087;SDS011;42965;52.846;6.614;2023-03-14T12:17:07;6.15;;;1.40;;
57087;SDS011;42965;52.846;6.614;2023-03-14T12:19:59;8.05;;;1.73;;
57087;SDS011;42965;52.846;6.614;2023-03-14T12:22:36;6.07;;;1.58;;
57087;SDS011;42965;52.846;6.614;2023-03-14T12:27:47;9.32;;;2.63;;
57087;SDS011;42965;52.846;6.614;2023-03-14T12:30:27;6.88;;;1.65;;
57087;SDS011;42965;52.846;6.614;2023-03-14T12:35:44;6.22;;;1.23;;
57087;SDS011;42965;52.846;6.614;2023-03-14T12:43:47;7.35;;;1.52;;
57087;SDS011;42965;52.846;6.614;2023-03-14T12:49:03;7.18;;;1.40;;
57087;SDS011;42965;52.846;6.614;2023-03-14T12:51:40;9.05;;;2.20;;
57087;SDS011;42965;52.846;6.614;2023-03-14T12:59:32;8.15;;;1.65;;
57087;SDS011;42965;52.846;6.614;2023-03-14T13:10:27;4.63;;;1.30;;
57087;SDS011;42965;52.846;6.614;2023-03-14T13:13:15;8.82;;;2.03;;
57087;SDS011;42965;52.846;6.614;2023-03-14T13:15:48;8.48;;;1.83;;
57087;SDS011;42965;52.846;6.614;2023-03-14T13:18:29;6.75;;;1.42;;
57087;SDS011;42965;52.846;6.614;2023-03-14T13:21:09;11.23;;;2.95;;
57087;SDS011;42965;52.846;6.614;2023-03-14T13:24:01;10.30;;;2.00;;
57087;SDS011;42965;52.846;6.614;2023-03-14T13:26:32;7.30;;;1.77;;
57087;SDS011;42965;52.846;6.614;2023-03-14T13:32:02;7.38;;;1.77;;
57087;SDS011;42965;52.846;6.614;2023-03-14T13:34:42;11.23;;;2.88;;
57087;SDS011;42965;52.846;6.614;2023-03-14T13:37:15;9.18;;;2.60;;
57087;SDS011;42965;52.846;6.614;2023-03-14T13:39:57;12.15;;;2.53;;
57087;SDS011;42965;52.846;6.614;2023-03-14T13:44:52;6.50;;;1.73;;
57087;SDS011;42965;52.846;6.614;2023-03-14T13:47:24;8.00;;;1.52;;
57087;SDS011;42965;52.846;6.614;2023-03-14T13:49:52;6.57;;;1.90;;
57087;SDS011;42965;52.846;6.614;2023-03-14T13:52:34;5.30;;;1.92;;
57087;SDS011;42965;52.846;6.614;2023-03-14T13:55:03;8.65;;;1.60;;
57087;SDS011;42965;52.846;6.614;2023-03-14T13:57:47;7.80;;;1.40;;
57087;SDS011;42965;52.846;6.614;2023-03-14T14:00:24;8.07;;;1.70;;
57087;SDS011;42965;52.846;6.614;2023-03-14T14:03:03;8.85;;;2.15;;
57087;SDS011;42965;52.846;6.614;2023-03-14T14:05:31;7.85;;;2.25;;
57087;SDS011;42965;52.846;6.614;2023-03-14T14:07:59;9.18;;;2.00;;
57087;SDS011;42965;52.846;6.614;2023-03-14T14:10:30;8.10;;;2.20;;
57087;SDS011;42965;52.846;6.614;2023-03-14T14:13:01;8.82;;;2.55;;
57087;SDS011;42965;52.846;6.614;2023-03-14T14:15:31;6.43;;;2.03;;
57087;SDS011;42965;52.846;6.614;2023-03-14T14:18:03;10.68;;;2.53;;
57087;SDS011;42965;52.846;6.614;2023-03-14T14:23:12;9.82;;;2.58;;
57087;SDS011;42965;52.846;6.614;2023-03-14T14:25:44;8.25;;;2.50;;
57087;SDS011;42965;52.846;6.614;2023-03-14T14:28:15;5.80;;;1.48;;
57087;SDS011;42965;52.846;6.614;2023-03-14T14:30:46;10.20;;;1.88;;
57087;SDS011;42965;52.846;6.614;2023-03-14T14:33:24;6.70;;;1.70;;
57087;SDS011;42965;52.846;6.614;2023-03-14T14:35:57;10.00;;;1.90;;
57087;SDS011;42965;52.846;6.614;2023-03-14T14:38:26;7.40;;;1.80;;
57087;SDS011;42965;52.846;6.614;2023-03-14T14:40:55;9.45;;;1.77;;
57087;SDS011;42965;52.846;6.614;2023-03-14T14:43:40;10.32;;;2.00;;
57087;SDS011;42965;52.846;6.614;2023-03-14T14:46:07;11.68;;;1.88;;
57087;SDS011;42965;52.846;6.614;2023-03-14T14:48:37;8.90;;;1.70;;
57087;SDS011;42965;52.846;6.614;2023-03-14T14:51:05;5.90;;;1.65;;
57087;SDS011;42965;52.846;6.614;2023-03-14T14:53:36;10.75;;;1.90;;
57087;SDS011;42965;52.846;6.614;2023-03-14T14:56:20;10.35;;;2.35;;
57087;SDS011;42965;52.846;6.614;2023-03-14T14:58:55;7.85;;;1.95;;
57087;SDS011;42965;52.846;6.614;2023-03-14T15:01:24;11.57;;;3.58;;
57087;SDS011;42965;52.846;6.614;2023-03-14T15:03:57;10.32;;;3.28;;
57087;SDS011;42965;52.846;6.614;2023-03-14T15:06:25;12.98;;;2.83;;
57087;SDS011;42965;52.846;6.614;2023-03-14T15:08:55;12.48;;;3.47;;
57087;SDS011;42965;52.846;6.614;2023-03-14T15:11:22;13.45;;;3.05;;
57087;SDS011;42965;52.846;6.614;2023-03-14T15:13:51;11.00;;;2.33;;
57087;SDS011;42965;52.846;6.614;2023-03-14T15:16:19;8.25;;;2.15;;
57087;SDS011;42965;52.846;6.614;2023-03-14T15:18:49;9.38;;;2.25;;
57087;SDS011;42965;52.846;6.614;2023-03-14T15:21:21;10.77;;;2.38;;
57087;SDS011;42965;52.846;6.614;2023-03-14T15:23:48;10.82;;;2.15;;
57087;SDS011;42965;52.846;6.614;2023-03-14T15:26:18;7.45;;;1.73;;
57087;SDS011;42965;52.846;6.614;2023-03-14T15:28:49;7.75;;;1.85;;
57087;SDS011;42965;52.846;6.614;2023-03-14T15:31:17;5.95;;;1.80;;
57087;SDS011;42965;52.846;6.614;2023-03-14T15:33:44;6.20;;;1.55;;
57087;SDS011;42965;52.846;6.614;2023-03-14T15:36:25;6.35;;;1.10;;
57087;SDS011;42965;52.846;6.614;2023-03-14T15:38:58;6.35;;;1.85;;
57087;SDS011;42965;52.846;6.614;2023-03-14T15:41:27;8.25;;;1.67;;
57087;SDS011;42965;52.846;6.614;2023-03-14T15:43:54;7.55;;;2.38;;
57087;SDS011;42965;52.846;6.614;2023-03-14T15:46:21;9.77;;;1.77;;
57087;SDS011;42965;52.846;6.614;2023-03-14T15:48:48;6.80;;;1.58;;
57087;SDS011;42965;52.846;6.614;2023-03-14T15:51:18;7.85;;;1.58;;
57087;SDS011;42965;52.846;6.614;2023-03-14T15:53:45;8.80;;;1.80;;
57087;SDS011;42965;52.846;6.614;2023-03-14T15:56:16;9.20;;;1.85;;
57087;SDS011;42965;52.846;6.614;2023-03-14T15:58:44;15.15;;;2.17;;
57087;SDS011;42965;52.846;6.614;2023-03-14T16:01:14;11.45;;;2.25;;
57087;SDS011;42965;52.846;6.614;2023-03-14T16:03:44;11.25;;;2.25;;
57087;SDS011;42965;52.846;6.614;2023-03-14T16:06:10;8.63;;;2.42;;
57087;SDS011;42965;52.846;6.614;2023-03-14T16:08:37;7.32;;;1.50;;
57087;SDS011;42965;52.846;6.614;2023-03-14T16:11:04;10.40;;;2.15;;
57087;SDS011;42965;52.846;6.614;2023-03-14T16:13:30;14.13;;;2.67;;
57087;SDS011;42965;52.846;6.614;2023-03-14T16:15:57;12.85;;;2.67;;
57087;SDS011;42965;52.846;6.614;2023-03-14T16:18:30;9.32;;;2.03;;
57087;SDS011;42965;52.846;6.614;2023-03-14T16:20:59;11.40;;;2.03;;
57087;SDS011;42965;52.846;6.614;2023-03-14T16:23:32;10.35;;;3.53;;
57087;SDS011;42965;52.846;6.614;2023-03-14T16:26:02;10.63;;;2.70;;
57087;SDS011;42965;52.846;6.614;2023-03-14T16:28:34;10.38;;;3.13;;
57087;SDS011;42965;52.846;6.614;2023-03-14T16:31:07;13.57;;;3.97;;
57087;SDS011;42965;52.846;6.614;2023-03-14T16:33:40;14.57;;;4.00;;